sensor_id;sensor_type;location;lat;lon;timestamp;P1;durP1;ratioP1;P2;durP2;ratioP2
6300;SDS011;3183;51.010;6.898;2022-10-14T00:01:03;25.43;;;12.47;;
6300;SDS011;3183;51.010;6.898;2022-10-14T00:03:31;17.43;;;12.33;;
6300;SDS011;3183;51.010;6.898;2022-10-14T00:06:02;22.37;;;12.70;;
6300;SDS011;3183;51.010;6.898;2022-10-14T00:08:29;24.00;;;14.03;;
6300;SDS011;3183;51.010;6.898;2022-10-14T00:11:01;17.70;;;12.47;;
6300;SDS011;3183;51.010;6.898;2022-10-14T00:13:28;21.07;;;13.83;;
6300;SDS011;3183;51.010;6.898;2022-10-14T00:15:56;30.47;;;13.60;;
6300;SDS011;3183;51.010;6.898;2022-10-14T00:18:24;25.10;;;13.50;;
6300;SDS011;3183;51.010;6.898;2022-10-14T00:20:54;22.93;;;14.07;;
6300;SDS011;3183;51.010;6.898;2022-10-14T00:23:22;22.93;;;13.93;;
6300;SDS011;3183;51.010;6.898;2022-10-14T00:25:49;22.43;;;13.80;;
6300;SDS011;3183;51.010;6.898;2022-10-14T00:28:16;21.03;;;12.90;;
6300;SDS011;3183;51.010;6.898;2022-10-14T00:30:51;21.50;;;14.07;;
6300;SDS011;3183;51.010;6.898;2022-10-14T00:33:18;20.60;;;13.03;;
6300;SDS011;3183;51.010;6.898;2022-10-14T00:35:53;19.27;;;12.70;;
6300;SDS011;3183;51.010;6.898;2022-10-14T00:38:20;23.33;;;12.87;;
6300;SDS011;3183;51.010;6.898;2022-10-14T00:40:47;21.40;;;12.40;;
6300;SDS011;3183;51.010;6.898;2022-10-14T00:43:14;19.77;;;12.20;;
6300;SDS011;3183;51.010;6.898;2022-10-14T00:45:41;19.10;;;12.93;;
6300;SDS011;3183;51.010;6.898;2022-10-14T00:48:08;49.07;;;13.40;;
6300;SDS011;3183;51.010;6.898;2022-10-14T00:50:36;21.30;;;12.30;;
6300;SDS011;3183;51.010;6.898;2022-10-14T00:53:05;24.10;;;13.53;;
6300;SDS011;3183;51.010;6.898;2022-10-14T00:55:32;21.90;;;13.60;;
6300;SDS011;3183;51.010;6.898;2022-10-14T00:57:59;22.03;;;13.73;;
6300;SDS011;3183;51.010;6.898;2022-10-14T01:00:26;37.33;;;13.40;;
6300;SDS011;3183;51.010;6.898;2022-10-14T01:02:54;32.60;;;14.07;;
6300;SDS011;3183;51.010;6.898;2022-10-14T01:05:21;23.03;;;12.80;;
6300;SDS011;3183;51.010;6.898;2022-10-14T01:07:55;23.40;;;13.17;;
6300;SDS011;3183;51.010;6.898;2022-10-14T01:10:29;23.27;;;14.17;;
6300;SDS011;3183;51.010;6.898;2022-10-14T01:13:00;19.30;;;12.40;;
6300;SDS011;3183;51.010;6.898;2022-10-14T01:15:31;29.73;;;13.20;;
6300;SDS011;3183;51.010;6.898;2022-10-14T01:18:04;17.20;;;12.37;;
6300;SDS011;3183;51.010;6.898;2022-10-14T01:23:26;20.50;;;13.40;;
6300;SDS011;3183;51.010;6.898;2022-10-14T01:26:03;23.80;;;13.57;;
6300;SDS011;3183;51.010;6.898;2022-10-14T01:28:39;18.80;;;12.87;;
6300;SDS011;3183;51.010;6.898;2022-10-14T01:31:12;17.50;;;12.70;;
6300;SDS011;3183;51.010;6.898;2022-10-14T01:33:42;22.73;;;14.00;;
6300;SDS011;3183;51.010;6.898;2022-10-14T01:36:12;22.87;;;12.43;;
6300;SDS011;3183;51.010;6.898;2022-10-14T01:38:43;23.90;;;13.23;;
6300;SDS011;3183;51.010;6.898;2022-10-14T01:41:13;26.17;;;12.50;;
6300;SDS011;3183;51.010;6.898;2022-10-14T01:43:43;18.77;;;12.00;;
6300;SDS011;3183;51.010;6.898;2022-10-14T01:46:13;20.70;;;12.80;;
6300;SDS011;3183;51.010;6.898;2022-10-14T01:48:43;20.23;;;12.60;;
6300;SDS011;3183;51.010;6.898;2022-10-14T01:51:11;15.93;;;11.73;;
6300;SDS011;3183;51.010;6.898;2022-10-14T01:53:41;21.30;;;12.40;;
6300;SDS011;3183;51.010;6.898;2022-10-14T01:56:08;19.50;;;13.33;;
6300;SDS011;3183;51.010;6.898;2022-10-14T01:58:37;18.47;;;10.90;;
6300;SDS011;3183;51.010;6.898;2022-10-14T02:01:05;19.53;;;11.60;;
6300;SDS011;3183;51.010;6.898;2022-10-14T02:03:39;19.97;;;12.30;;
6300;SDS011;3183;51.010;6.898;2022-10-14T02:06:07;23.53;;;12.10;;
6300;SDS011;3183;51.010;6.898;2022-10-14T02:08:40;17.93;;;10.53;;
6300;SDS011;3183;51.010;6.898;2022-10-14T02:11:10;27.30;;;12.50;;
6300;SDS011;3183;51.010;6.898;2022-10-14T02:13:42;30.70;;;12.77;;
6300;SDS011;3183;51.010;6.898;2022-10-14T02:16:13;20.17;;;11.50;;
6300;SDS011;3183;51.010;6.898;2022-10-14T02:18:45;20.13;;;11.10;;
6300;SDS011;3183;51.010;6.898;2022-10-14T02:21:16;24.40;;;11.53;;
6300;SDS011;3183;51.010;6.898;2022-10-14T02:23:45;25.23;;;12.50;;
6300;SDS011;3183;51.010;6.898;2022-10-14T02:26:12;19.40;;;12.60;;
6300;SDS011;3183;51.010;6.898;2022-10-14T02:28:39;17.63;;;11.30;;
6300;SDS011;3183;51.010;6.898;2022-10-14T02:31:09;17.77;;;12.03;;
6300;SDS011;3183;51.010;6.898;2022-10-14T02:33:40;27.03;;;12.77;;
6300;SDS011;3183;51.010;6.898;2022-10-14T02:36:10;22.47;;;13.13;;
6300;SDS011;3183;51.010;6.898;2022-10-14T02:38:38;19.60;;;11.43;;
6300;SDS011;3183;51.010;6.898;2022-10-14T02:41:06;15.93;;;10.90;;
6300;SDS011;3183;51.010;6.898;2022-10-14T02:43:34;21.63;;;11.83;;
6300;SDS011;3183;51.010;6.898;2022-10-14T02:46:02;18.80;;;11.80;;
6300;SDS011;3183;51.010;6.898;2022-10-14T02:48:30;16.50;;;11.77;;
6300;SDS011;3183;51.010;6.898;2022-10-14T02:50:57;19.10;;;12.13;;
6300;SDS011;3183;51.010;6.898;2022-10-14T02:53:25;15.40;;;10.77;;
6300;SDS011;3183;51.010;6.898;2022-10-14T02:55:52;18.60;;;10.63;;
6300;SDS011;3183;51.010;6.898;2022-10-14T02:58:20;17.10;;;11.43;;
6300;SDS011;3183;51.010;6.898;2022-10-14T03:00:47;21.07;;;11.77;;
6300;SDS011;3183;51.010;6.898;2022-10-14T03:03:14;15.90;;;10.53;;
6300;SDS011;3183;51.010;6.898;2022-10-14T03:05:41;24.93;;;12.10;;
6300;SDS011;3183;51.010;6.898;2022-10-14T03:08:08;17.47;;;11.23;;
6300;SDS011;3183;51.010;6.898;2022-10-14T03:10:37;18.60;;;11.90;;
6300;SDS011;3183;51.010;6.898;2022-10-14T03:13:04;21.90;;;12.07;;
6300;SDS011;3183;51.010;6.898;2022-10-14T03:15:31;18.13;;;11.80;;
6300;SDS011;3183;51.010;6.898;2022-10-14T03:17:58;23.57;;;12.60;;
6300;SDS011;3183;51.010;6.898;2022-10-14T03:20:25;20.67;;;11.47;;
6300;SDS011;3183;51.010;6.898;2022-10-14T03:22:52;18.77;;;11.37;;
6300;SDS011;3183;51.010;6.898;2022-10-14T03:25:20;21.07;;;10.90;;
6300;SDS011;3183;51.010;6.898;2022-10-14T03:27:49;19.00;;;11.70;;
6300;SDS011;3183;51.010;6.898;2022-10-14T03:30:16;16.50;;;10.70;;
6300;SDS011;3183;51.010;6.898;2022-10-14T03:32:43;15.50;;;9.77;;
6300;SDS011;3183;51.010;6.898;2022-10-14T03:35:10;21.63;;;12.20;;
6300;SDS011;3183;51.010;6.898;2022-10-14T03:37:38;22.60;;;10.77;;
6300;SDS011;3183;51.010;6.898;2022-10-14T03:40:05;16.13;;;10.40;;
6300;SDS011;3183;51.010;6.898;2022-10-14T03:42:32;21.43;;;9.53;;
6300;SDS011;3183;51.010;6.898;2022-10-14T03:45:01;18.20;;;11.20;;
6300;SDS011;3183;51.010;6.898;2022-10-14T03:47:28;17.93;;;10.37;;
6300;SDS011;3183;51.010;6.898;2022-10-14T03:49:55;18.10;;;10.10;;
6300;SDS011;3183;51.010;6.898;2022-10-14T03:52:22;15.83;;;9.13;;
6300;SDS011;3183;51.010;6.898;2022-10-14T03:54:50;13.07;;;9.20;;
6300;SDS011;3183;51.010;6.898;2022-10-14T03:57:17;16.10;;;9.10;;
6300;SDS011;3183;51.010;6.898;2022-10-14T03:59:44;16.87;;;9.57;;
6300;SDS011;3183;51.010;6.898;2022-10-14T04:02:12;19.00;;;9.53;;
6300;SDS011;3183;51.010;6.898;2022-10-14T04:04:39;15.40;;;8.63;;
6300;SDS011;3183;51.010;6.898;2022-10-14T04:07:07;15.30;;;8.93;;
6300;SDS011;3183;51.010;6.898;2022-10-14T04:09:34;17.43;;;9.40;;
6300;SDS011;3183;51.010;6.898;2022-10-14T04:12:01;14.80;;;9.17;;
6300;SDS011;3183;51.010;6.898;2022-10-14T04:14:28;17.00;;;8.67;;
6300;SDS011;3183;51.010;6.898;2022-10-14T04:16:55;15.83;;;9.27;;
6300;SDS011;3183;51.010;6.898;2022-10-14T04:19:23;15.77;;;9.10;;
6300;SDS011;3183;51.010;6.898;2022-10-14T04:21:51;17.50;;;9.60;;
6300;SDS011;3183;51.010;6.898;2022-10-14T04:24:18;19.80;;;11.37;;
6300;SDS011;3183;51.010;6.898;2022-10-14T04:26:48;14.40;;;8.60;;
6300;SDS011;3183;51.010;6.898;2022-10-14T04:29:15;12.43;;;7.83;;
6300;SDS011;3183;51.010;6.898;2022-10-14T04:31:42;11.73;;;9.03;;
6300;SDS011;3183;51.010;6.898;2022-10-14T04:34:10;13.77;;;8.53;;
6300;SDS011;3183;51.010;6.898;2022-10-14T04:36:38;16.70;;;9.20;;
6300;SDS011;3183;51.010;6.898;2022-10-14T04:39:06;13.47;;;9.20;;
6300;SDS011;3183;51.010;6.898;2022-10-14T04:41:33;11.53;;;8.53;;
6300;SDS011;3183;51.010;6.898;2022-10-14T04:44:00;14.70;;;8.60;;
6300;SDS011;3183;51.010;6.898;2022-10-14T04:46:27;17.67;;;9.30;;
6300;SDS011;3183;51.010;6.898;2022-10-14T04:48:55;19.30;;;8.43;;
6300;SDS011;3183;51.010;6.898;2022-10-14T04:51:22;15.47;;;8.67;;
6300;SDS011;3183;51.010;6.898;2022-10-14T04:53:51;13.93;;;8.43;;
6300;SDS011;3183;51.010;6.898;2022-10-14T04:56:18;11.47;;;8.17;;
6300;SDS011;3183;51.010;6.898;2022-10-14T04:58:45;15.30;;;8.20;;
6300;SDS011;3183;51.010;6.898;2022-10-14T05:01:12;12.93;;;8.53;;
6300;SDS011;3183;51.010;6.898;2022-10-14T05:03:39;11.37;;;8.50;;
6300;SDS011;3183;51.010;6.898;2022-10-14T05:06:06;14.37;;;7.70;;
6300;SDS011;3183;51.010;6.898;2022-10-14T05:08:34;11.70;;;8.27;;
6300;SDS011;3183;51.010;6.898;2022-10-14T05:11:02;11.13;;;7.40;;
6300;SDS011;3183;51.010;6.898;2022-10-14T05:13:30;13.70;;;8.07;;
6300;SDS011;3183;51.010;6.898;2022-10-14T05:15:57;15.40;;;7.30;;
6300;SDS011;3183;51.010;6.898;2022-10-14T05:18:24;14.33;;;8.13;;
6300;SDS011;3183;51.010;6.898;2022-10-14T05:20:51;12.90;;;8.83;;
6300;SDS011;3183;51.010;6.898;2022-10-14T05:23:18;11.07;;;8.50;;
6300;SDS011;3183;51.010;6.898;2022-10-14T05:25:45;13.33;;;9.40;;
6300;SDS011;3183;51.010;6.898;2022-10-14T05:28:14;15.77;;;8.67;;
6300;SDS011;3183;51.010;6.898;2022-10-14T05:30:41;10.23;;;8.33;;
6300;SDS011;3183;51.010;6.898;2022-10-14T05:33:08;10.17;;;7.73;;
6300;SDS011;3183;51.010;6.898;2022-10-14T05:35:36;12.07;;;8.00;;
6300;SDS011;3183;51.010;6.898;2022-10-14T05:38:03;15.80;;;7.07;;
6300;SDS011;3183;51.010;6.898;2022-10-14T05:40:30;14.27;;;8.37;;
6300;SDS011;3183;51.010;6.898;2022-10-14T05:42:57;13.20;;;7.80;;
6300;SDS011;3183;51.010;6.898;2022-10-14T05:45:26;9.70;;;7.30;;
6300;SDS011;3183;51.010;6.898;2022-10-14T05:47:53;15.17;;;8.53;;
6300;SDS011;3183;51.010;6.898;2022-10-14T05:50:20;10.97;;;7.33;;
6300;SDS011;3183;51.010;6.898;2022-10-14T05:52:47;15.67;;;7.50;;
6300;SDS011;3183;51.010;6.898;2022-10-14T05:55:15;11.43;;;8.10;;
6300;SDS011;3183;51.010;6.898;2022-10-14T05:57:42;11.53;;;8.13;;
6300;SDS011;3183;51.010;6.898;2022-10-14T06:00:09;9.90;;;7.77;;
6300;SDS011;3183;51.010;6.898;2022-10-14T06:02:39;10.40;;;7.23;;
6300;SDS011;3183;51.010;6.898;2022-10-14T06:05:06;12.40;;;8.20;;
6300;SDS011;3183;51.010;6.898;2022-10-14T06:07:34;13.33;;;7.50;;
6300;SDS011;3183;51.010;6.898;2022-10-14T06:10:01;13.70;;;7.70;;
6300;SDS011;3183;51.010;6.898;2022-10-14T06:12:28;14.17;;;8.10;;
6300;SDS011;3183;51.010;6.898;2022-10-14T06:14:56;11.60;;;7.90;;
6300;SDS011;3183;51.010;6.898;2022-10-14T06:17:24;14.50;;;8.07;;
6300;SDS011;3183;51.010;6.898;2022-10-14T06:19:52;11.60;;;7.50;;
6300;SDS011;3183;51.010;6.898;2022-10-14T06:22:19;26.00;;;16.20;;
6300;SDS011;3183;51.010;6.898;2022-10-14T06:24:47;19.43;;;10.70;;
6300;SDS011;3183;51.010;6.898;2022-10-14T06:27:14;11.77;;;7.37;;
6300;SDS011;3183;51.010;6.898;2022-10-14T06:29:41;16.33;;;7.97;;
6300;SDS011;3183;51.010;6.898;2022-10-14T06:32:08;11.33;;;6.07;;
6300;SDS011;3183;51.010;6.898;2022-10-14T06:34:35;13.67;;;6.77;;
6300;SDS011;3183;51.010;6.898;2022-10-14T06:37:04;14.40;;;7.33;;
6300;SDS011;3183;51.010;6.898;2022-10-14T06:39:31;132.07;;;17.90;;
6300;SDS011;3183;51.010;6.898;2022-10-14T06:41:58;169.30;;;21.80;;
6300;SDS011;3183;51.010;6.898;2022-10-14T06:44:25;331.30;;;36.07;;
6300;SDS011;3183;51.010;6.898;2022-10-14T06:46:52;127.47;;;17.17;;
6300;SDS011;3183;51.010;6.898;2022-10-14T06:49:19;12.70;;;7.60;;
6300;SDS011;3183;51.010;6.898;2022-10-14T06:51:46;10.10;;;6.60;;
6300;SDS011;3183;51.010;6.898;2022-10-14T06:54:15;12.37;;;6.97;;
6300;SDS011;3183;51.010;6.898;2022-10-14T06:56:42;166.50;;;21.80;;
6300;SDS011;3183;51.010;6.898;2022-10-14T06:59:09;18.47;;;7.43;;
6300;SDS011;3183;51.010;6.898;2022-10-14T07:01:36;10.07;;;6.90;;
6300;SDS011;3183;51.010;6.898;2022-10-14T07:04:04;11.67;;;7.10;;
6300;SDS011;3183;51.010;6.898;2022-10-14T07:06:31;10.80;;;6.07;;
6300;SDS011;3183;51.010;6.898;2022-10-14T07:08:58;8.50;;;6.57;;
6300;SDS011;3183;51.010;6.898;2022-10-14T07:11:27;15.27;;;7.30;;
6300;SDS011;3183;51.010;6.898;2022-10-14T07:13:54;10.20;;;6.83;;
6300;SDS011;3183;51.010;6.898;2022-10-14T07:16:21;11.80;;;6.60;;
6300;SDS011;3183;51.010;6.898;2022-10-14T07:18:48;15.60;;;7.20;;
6300;SDS011;3183;51.010;6.898;2022-10-14T07:21:16;8.97;;;7.00;;
6300;SDS011;3183;51.010;6.898;2022-10-14T07:23:43;10.00;;;6.50;;
6300;SDS011;3183;51.010;6.898;2022-10-14T07:26:10;10.30;;;6.30;;
6300;SDS011;3183;51.010;6.898;2022-10-14T07:28:39;12.70;;;7.00;;
6300;SDS011;3183;51.010;6.898;2022-10-14T07:31:06;14.30;;;6.90;;
6300;SDS011;3183;51.010;6.898;2022-10-14T07:33:34;13.93;;;6.40;;
6300;SDS011;3183;51.010;6.898;2022-10-14T07:36:02;12.87;;;7.17;;
6300;SDS011;3183;51.010;6.898;2022-10-14T07:38:29;14.53;;;6.80;;
6300;SDS011;3183;51.010;6.898;2022-10-14T07:40:57;11.80;;;6.90;;
6300;SDS011;3183;51.010;6.898;2022-10-14T07:43:25;9.37;;;6.80;;
6300;SDS011;3183;51.010;6.898;2022-10-14T07:45:53;12.53;;;7.60;;
6300;SDS011;3183;51.010;6.898;2022-10-14T07:48:25;8.93;;;6.07;;
6300;SDS011;3183;51.010;6.898;2022-10-14T07:50:52;24.57;;;6.77;;
6300;SDS011;3183;51.010;6.898;2022-10-14T07:53:20;14.20;;;7.90;;
6300;SDS011;3183;51.010;6.898;2022-10-14T07:55:47;26.40;;;6.57;;
6300;SDS011;3183;51.010;6.898;2022-10-14T07:58:18;9.90;;;6.70;;
6300;SDS011;3183;51.010;6.898;2022-10-14T08:00:45;10.03;;;6.40;;
6300;SDS011;3183;51.010;6.898;2022-10-14T08:03:13;10.43;;;6.20;;
6300;SDS011;3183;51.010;6.898;2022-10-14T08:05:40;13.57;;;7.50;;
6300;SDS011;3183;51.010;6.898;2022-10-14T08:08:08;15.17;;;6.63;;
6300;SDS011;3183;51.010;6.898;2022-10-14T08:10:35;14.13;;;6.40;;
6300;SDS011;3183;51.010;6.898;2022-10-14T08:13:02;10.13;;;6.63;;
6300;SDS011;3183;51.010;6.898;2022-10-14T08:15:31;9.33;;;6.20;;
6300;SDS011;3183;51.010;6.898;2022-10-14T08:17:58;9.63;;;6.30;;
6300;SDS011;3183;51.010;6.898;2022-10-14T08:20:27;11.53;;;6.70;;
6300;SDS011;3183;51.010;6.898;2022-10-14T08:22:54;15.60;;;5.60;;
6300;SDS011;3183;51.010;6.898;2022-10-14T08:25:21;10.73;;;7.20;;
6300;SDS011;3183;51.010;6.898;2022-10-14T08:27:48;12.20;;;5.97;;
6300;SDS011;3183;51.010;6.898;2022-10-14T08:30:17;12.23;;;6.57;;
6300;SDS011;3183;51.010;6.898;2022-10-14T08:32:44;8.73;;;5.80;;
6300;SDS011;3183;51.010;6.898;2022-10-14T08:35:11;10.63;;;5.77;;
6300;SDS011;3183;51.010;6.898;2022-10-14T08:37:40;10.07;;;6.67;;
6300;SDS011;3183;51.010;6.898;2022-10-14T08:40:09;11.10;;;5.50;;
6300;SDS011;3183;51.010;6.898;2022-10-14T08:42:41;8.33;;;6.23;;
6300;SDS011;3183;51.010;6.898;2022-10-14T08:45:10;54.30;;;9.37;;
6300;SDS011;3183;51.010;6.898;2022-10-14T08:47:40;13.40;;;6.80;;
6300;SDS011;3183;51.010;6.898;2022-10-14T08:50:16;14.50;;;6.40;;
6300;SDS011;3183;51.010;6.898;2022-10-14T08:52:47;10.07;;;6.20;;
6300;SDS011;3183;51.010;6.898;2022-10-14T08:55:17;8.10;;;5.90;;
6300;SDS011;3183;51.010;6.898;2022-10-14T08:57:49;8.33;;;5.97;;
6300;SDS011;3183;51.010;6.898;2022-10-14T09:00:18;7.60;;;4.97;;
6300;SDS011;3183;51.010;6.898;2022-10-14T09:02:46;18.30;;;6.40;;
6300;SDS011;3183;51.010;6.898;2022-10-14T09:05:14;11.17;;;5.77;;
6300;SDS011;3183;51.010;6.898;2022-10-14T09:07:42;5.97;;;4.77;;
6300;SDS011;3183;51.010;6.898;2022-10-14T09:10:13;7.70;;;5.57;;
6300;SDS011;3183;51.010;6.898;2022-10-14T09:12:41;14.00;;;6.53;;
6300;SDS011;3183;51.010;6.898;2022-10-14T09:15:11;8.80;;;5.90;;
6300;SDS011;3183;51.010;6.898;2022-10-14T09:17:40;8.97;;;6.07;;
6300;SDS011;3183;51.010;6.898;2022-10-14T09:20:13;9.70;;;6.10;;
6300;SDS011;3183;51.010;6.898;2022-10-14T09:22:41;7.20;;;5.23;;
6300;SDS011;3183;51.010;6.898;2022-10-14T09:25:12;15.53;;;6.00;;
6300;SDS011;3183;51.010;6.898;2022-10-14T09:27:40;9.00;;;5.50;;
6300;SDS011;3183;51.010;6.898;2022-10-14T09:30:08;8.57;;;5.30;;
6300;SDS011;3183;51.010;6.898;2022-10-14T09:32:39;9.30;;;6.07;;
6300;SDS011;3183;51.010;6.898;2022-10-14T09:35:12;8.07;;;5.47;;
6300;SDS011;3183;51.010;6.898;2022-10-14T09:37:40;7.10;;;5.57;;
6300;SDS011;3183;51.010;6.898;2022-10-14T09:40:12;11.20;;;5.60;;
6300;SDS011;3183;51.010;6.898;2022-10-14T09:42:43;9.90;;;5.67;;
6300;SDS011;3183;51.010;6.898;2022-10-14T09:45:14;7.50;;;5.43;;
6300;SDS011;3183;51.010;6.898;2022-10-14T09:47:43;11.00;;;6.00;;
6300;SDS011;3183;51.010;6.898;2022-10-14T09:50:17;8.77;;;5.07;;
6300;SDS011;3183;51.010;6.898;2022-10-14T09:52:47;7.10;;;4.87;;
6300;SDS011;3183;51.010;6.898;2022-10-14T09:55:17;9.47;;;5.00;;
6300;SDS011;3183;51.010;6.898;2022-10-14T09:57:46;8.20;;;5.23;;
6300;SDS011;3183;51.010;6.898;2022-10-14T10:00:24;9.10;;;5.03;;
6300;SDS011;3183;51.010;6.898;2022-10-14T10:02:52;7.60;;;5.10;;
6300;SDS011;3183;51.010;6.898;2022-10-14T10:05:22;9.23;;;4.70;;
6300;SDS011;3183;51.010;6.898;2022-10-14T10:07:58;18.40;;;5.37;;
6300;SDS011;3183;51.010;6.898;2022-10-14T10:10:26;7.10;;;5.00;;
6300;SDS011;3183;51.010;6.898;2022-10-14T10:12:56;8.70;;;5.07;;
6300;SDS011;3183;51.010;6.898;2022-10-14T10:15:24;8.13;;;4.83;;
6300;SDS011;3183;51.010;6.898;2022-10-14T10:17:51;12.10;;;5.27;;
6300;SDS011;3183;51.010;6.898;2022-10-14T10:20:20;10.43;;;4.97;;
6300;SDS011;3183;51.010;6.898;2022-10-14T10:22:52;9.77;;;5.50;;
6300;SDS011;3183;51.010;6.898;2022-10-14T10:25:23;9.40;;;5.50;;
6300;SDS011;3183;51.010;6.898;2022-10-14T10:27:52;7.43;;;4.83;;
6300;SDS011;3183;51.010;6.898;2022-10-14T10:30:22;7.17;;;5.20;;
6300;SDS011;3183;51.010;6.898;2022-10-14T10:32:54;10.40;;;5.83;;
6300;SDS011;3183;51.010;6.898;2022-10-14T10:35:25;16.10;;;7.33;;
6300;SDS011;3183;51.010;6.898;2022-10-14T10:37:57;11.27;;;6.00;;
6300;SDS011;3183;51.010;6.898;2022-10-14T10:40:31;19.73;;;5.90;;
6300;SDS011;3183;51.010;6.898;2022-10-14T10:43:07;8.57;;;5.17;;
6300;SDS011;3183;51.010;6.898;2022-10-14T10:45:40;10.10;;;6.40;;
6300;SDS011;3183;51.010;6.898;2022-10-14T10:48:14;16.00;;;5.30;;
6300;SDS011;3183;51.010;6.898;2022-10-14T10:50:46;10.20;;;5.93;;
6300;SDS011;3183;51.010;6.898;2022-10-14T10:53:23;13.23;;;6.00;;
6300;SDS011;3183;51.010;6.898;2022-10-14T10:55:56;12.23;;;5.17;;
6300;SDS011;3183;51.010;6.898;2022-10-14T10:58:31;11.97;;;6.67;;
6300;SDS011;3183;51.010;6.898;2022-10-14T11:01:05;9.40;;;5.60;;
6300;SDS011;3183;51.010;6.898;2022-10-14T11:03:40;11.60;;;7.30;;
6300;SDS011;3183;51.010;6.898;2022-10-14T11:06:11;10.50;;;6.13;;
6300;SDS011;3183;51.010;6.898;2022-10-14T11:09:00;12.57;;;6.77;;
6300;SDS011;3183;51.010;6.898;2022-10-14T11:11:49;14.23;;;6.70;;
6300;SDS011;3183;51.010;6.898;2022-10-14T11:14:54;14.10;;;7.80;;
6300;SDS011;3183;51.010;6.898;2022-10-14T11:17:25;14.50;;;7.60;;
6300;SDS011;3183;51.010;6.898;2022-10-14T11:19:55;11.80;;;7.30;;
6300;SDS011;3183;51.010;6.898;2022-10-14T11:22:28;9.47;;;6.37;;
6300;SDS011;3183;51.010;6.898;2022-10-14T11:25:05;11.43;;;6.53;;
6300;SDS011;3183;51.010;6.898;2022-10-14T11:27:34;13.20;;;7.70;;
6300;SDS011;3183;51.010;6.898;2022-10-14T11:30:09;16.20;;;7.07;;
6300;SDS011;3183;51.010;6.898;2022-10-14T11:32:42;10.73;;;7.07;;
6300;SDS011;3183;51.010;6.898;2022-10-14T11:35:14;10.97;;;7.37;;
6300;SDS011;3183;51.010;6.898;2022-10-14T11:37:47;11.30;;;7.30;;
6300;SDS011;3183;51.010;6.898;2022-10-14T11:40:19;14.47;;;7.90;;
6300;SDS011;3183;51.010;6.898;2022-10-14T11:42:52;18.73;;;8.00;;
6300;SDS011;3183;51.010;6.898;2022-10-14T11:48:19;11.83;;;8.40;;
6300;SDS011;3183;51.010;6.898;2022-10-14T11:50:48;12.53;;;7.80;;
6300;SDS011;3183;51.010;6.898;2022-10-14T11:53:18;13.37;;;7.97;;
6300;SDS011;3183;51.010;6.898;2022-10-14T11:55:46;13.33;;;7.73;;
6300;SDS011;3183;51.010;6.898;2022-10-14T11:58:17;16.10;;;8.20;;
6300;SDS011;3183;51.010;6.898;2022-10-14T12:00:46;14.47;;;8.47;;
6300;SDS011;3183;51.010;6.898;2022-10-14T12:03:19;13.20;;;8.17;;
6300;SDS011;3183;51.010;6.898;2022-10-14T12:05:51;13.50;;;8.37;;
6300;SDS011;3183;51.010;6.898;2022-10-14T12:08:23;12.50;;;7.60;;
6300;SDS011;3183;51.010;6.898;2022-10-14T12:10:57;12.00;;;7.53;;
6300;SDS011;3183;51.010;6.898;2022-10-14T12:13:27;13.23;;;8.30;;
6300;SDS011;3183;51.010;6.898;2022-10-14T12:15:57;12.90;;;7.57;;
6300;SDS011;3183;51.010;6.898;2022-10-14T12:18:27;13.33;;;8.17;;
6300;SDS011;3183;51.010;6.898;2022-10-14T12:20:58;16.27;;;9.10;;
6300;SDS011;3183;51.010;6.898;2022-10-14T12:23:28;14.03;;;8.10;;
6300;SDS011;3183;51.010;6.898;2022-10-14T12:25:59;11.00;;;7.37;;
6300;SDS011;3183;51.010;6.898;2022-10-14T12:28:28;12.43;;;7.67;;
6300;SDS011;3183;51.010;6.898;2022-10-14T12:33:47;11.83;;;7.80;;
6300;SDS011;3183;51.010;6.898;2022-10-14T12:36:35;11.07;;;7.50;;
6300;SDS011;3183;51.010;6.898;2022-10-14T12:39:21;14.33;;;8.20;;
6300;SDS011;3183;51.010;6.898;2022-10-14T12:41:54;11.90;;;7.70;;
6300;SDS011;3183;51.010;6.898;2022-10-14T12:44:26;12.00;;;7.70;;
6300;SDS011;3183;51.010;6.898;2022-10-14T12:46:55;15.73;;;8.07;;
6300;SDS011;3183;51.010;6.898;2022-10-14T12:49:25;12.90;;;6.70;;
6300;SDS011;3183;51.010;6.898;2022-10-14T12:51:53;13.83;;;7.57;;
6300;SDS011;3183;51.010;6.898;2022-10-14T12:54:20;11.87;;;8.20;;
6300;SDS011;3183;51.010;6.898;2022-10-14T12:56:55;13.93;;;8.53;;
6300;SDS011;3183;51.010;6.898;2022-10-14T12:59:23;11.20;;;7.40;;
6300;SDS011;3183;51.010;6.898;2022-10-14T13:01:53;13.57;;;8.50;;
6300;SDS011;3183;51.010;6.898;2022-10-14T13:04:21;14.10;;;7.87;;
6300;SDS011;3183;51.010;6.898;2022-10-14T13:09:36;15.37;;;8.30;;
6300;SDS011;3183;51.010;6.898;2022-10-14T13:15:00;12.77;;;7.97;;
6300;SDS011;3183;51.010;6.898;2022-10-14T13:17:30;10.47;;;7.63;;
6300;SDS011;3183;51.010;6.898;2022-10-14T13:22:50;13.13;;;8.00;;
6300;SDS011;3183;51.010;6.898;2022-10-14T13:25:19;9.80;;;7.03;;
6300;SDS011;3183;51.010;6.898;2022-10-14T13:28:03;13.53;;;7.57;;
6300;SDS011;3183;51.010;6.898;2022-10-14T13:30:33;10.67;;;6.83;;
6300;SDS011;3183;51.010;6.898;2022-10-14T13:33:03;10.67;;;6.43;;
6300;SDS011;3183;51.010;6.898;2022-10-14T13:35:32;10.23;;;6.67;;
6300;SDS011;3183;51.010;6.898;2022-10-14T13:38:03;10.13;;;6.53;;
6300;SDS011;3183;51.010;6.898;2022-10-14T13:40:33;9.83;;;6.20;;
6300;SDS011;3183;51.010;6.898;2022-10-14T13:43:05;11.50;;;7.20;;
6300;SDS011;3183;51.010;6.898;2022-10-14T13:45:34;8.00;;;6.13;;
6300;SDS011;3183;51.010;6.898;2022-10-14T13:48:02;8.10;;;5.63;;
6300;SDS011;3183;51.010;6.898;2022-10-14T13:50:30;8.87;;;6.17;;
6300;SDS011;3183;51.010;6.898;2022-10-14T13:52:59;16.67;;;6.27;;
6300;SDS011;3183;51.010;6.898;2022-10-14T13:55:27;12.30;;;6.30;;
6300;SDS011;3183;51.010;6.898;2022-10-14T13:57:59;12.57;;;7.20;;
6300;SDS011;3183;51.010;6.898;2022-10-14T14:00:27;8.30;;;6.57;;
6300;SDS011;3183;51.010;6.898;2022-10-14T14:02:55;15.87;;;7.97;;
6300;SDS011;3183;51.010;6.898;2022-10-14T14:05:22;10.63;;;6.47;;
6300;SDS011;3183;51.010;6.898;2022-10-14T14:07:49;8.70;;;6.13;;
6300;SDS011;3183;51.010;6.898;2022-10-14T14:10:17;9.60;;;6.30;;
6300;SDS011;3183;51.010;6.898;2022-10-14T14:12:45;14.07;;;7.27;;
6300;SDS011;3183;51.010;6.898;2022-10-14T14:15:16;15.03;;;7.80;;
6300;SDS011;3183;51.010;6.898;2022-10-14T14:17:45;10.60;;;6.13;;
6300;SDS011;3183;51.010;6.898;2022-10-14T14:20:14;19.47;;;7.60;;
6300;SDS011;3183;51.010;6.898;2022-10-14T14:22:44;15.17;;;7.10;;
6300;SDS011;3183;51.010;6.898;2022-10-14T14:25:11;9.80;;;6.80;;
6300;SDS011;3183;51.010;6.898;2022-10-14T14:27:47;11.13;;;6.47;;
6300;SDS011;3183;51.010;6.898;2022-10-14T14:30:24;9.70;;;6.37;;
6300;SDS011;3183;51.010;6.898;2022-10-14T14:32:52;12.50;;;7.70;;
6300;SDS011;3183;51.010;6.898;2022-10-14T14:35:19;11.87;;;7.77;;
6300;SDS011;3183;51.010;6.898;2022-10-14T14:37:46;14.60;;;7.90;;
6300;SDS011;3183;51.010;6.898;2022-10-14T14:40:15;12.10;;;5.80;;
6300;SDS011;3183;51.010;6.898;2022-10-14T14:42:42;8.27;;;6.80;;
6300;SDS011;3183;51.010;6.898;2022-10-14T14:45:11;9.50;;;7.13;;
6300;SDS011;3183;51.010;6.898;2022-10-14T14:47:42;14.80;;;7.53;;
6300;SDS011;3183;51.010;6.898;2022-10-14T14:50:11;19.93;;;7.87;;
6300;SDS011;3183;51.010;6.898;2022-10-14T14:52:39;10.10;;;7.40;;
6300;SDS011;3183;51.010;6.898;2022-10-14T14:57:54;10.90;;;7.40;;
6300;SDS011;3183;51.010;6.898;2022-10-14T15:00:21;9.03;;;6.70;;
6300;SDS011;3183;51.010;6.898;2022-10-14T15:02:50;16.60;;;6.13;;
6300;SDS011;3183;51.010;6.898;2022-10-14T15:05:19;13.93;;;7.27;;
6300;SDS011;3183;51.010;6.898;2022-10-14T15:07:46;10.43;;;6.77;;
6300;SDS011;3183;51.010;6.898;2022-10-14T15:10:19;11.97;;;7.00;;
6300;SDS011;3183;51.010;6.898;2022-10-14T15:12:50;8.47;;;6.10;;
6300;SDS011;3183;51.010;6.898;2022-10-14T15:15:24;16.50;;;6.80;;
6300;SDS011;3183;51.010;6.898;2022-10-14T15:18:08;12.70;;;7.10;;
6300;SDS011;3183;51.010;6.898;2022-10-14T15:20:37;13.63;;;8.20;;
6300;SDS011;3183;51.010;6.898;2022-10-14T15:25:55;21.83;;;7.90;;
6300;SDS011;3183;51.010;6.898;2022-10-14T15:28:27;12.40;;;6.77;;
6300;SDS011;3183;51.010;6.898;2022-10-14T15:30:55;11.50;;;7.03;;
6300;SDS011;3183;51.010;6.898;2022-10-14T15:33:23;9.53;;;6.40;;
6300;SDS011;3183;51.010;6.898;2022-10-14T15:35:55;10.13;;;6.93;;